sensor_id;sensor_type;location;lat;lon;timestamp;pressure;altitude;pressure_sealevel;temperature;humidity
25650;BME280;13505;45.196;5.696;2023-05-29T06:01:15;99028.81;;;17.83;79.51
25650;BME280;13505;45.196;5.696;2023-05-29T06:06:05;99025.78;;;18.22;77.23
25650;BME280;13505;45.196;5.696;2023-05-29T06:10:56;99029.19;;;18.13;77.42
25650;BME280;13505;45.196;5.696;2023-05-29T06:15:46;99026.97;;;17.84;77.22
25650;BME280;13505;45.196;5.696;2023-05-29T06:20:37;99026.84;;;18.42;76.37
25650;BME280;13505;45.196;5.696;2023-05-29T06:25:27;99011.97;;;19.05;72.56
25650;BME280;13505;45.196;5.696;2023-05-29T06:30:23;99021.50;;;19.19;71.94
25650;BME280;13505;45.196;5.696;2023-05-29T06:35:13;99016.47;;;18.72;73.64
25650;BME280;13505;45.196;5.696;2023-05-29T06:40:04;99018.00;;;18.86;73.19
25650;BME280;13505;45.196;5.696;2023-05-29T06:44:55;99013.41;;;19.09;72.72
25650;BME280;13505;45.196;5.696;2023-05-29T06:49:45;99017.13;;;19.92;70.35
25650;BME280;13505;45.196;5.696;2023-05-29T06:54:35;99015.38;;;20.02;68.10
25650;BME280;13505;45.196;5.696;2023-05-29T06:59:26;99012.69;;;19.81;70.46
25650;BME280;13505;45.196;5.696;2023-05-29T07:04:16;99013.69;;;19.80;72.09
25650;BME280;13505;45.196;5.696;2023-05-29T07:09:06;99008.22;;;19.82;71.83
25650;BME280;13505;45.196;5.696;2023-05-29T07:13:57;99002.13;;;20.11;69.10
25650;BME280;13505;45.196;5.696;2023-05-29T07:18:47;99001.69;;;20.96;66.15
25650;BME280;13505;45.196;5.696;2023-05-29T07:23:39;99002.38;;;21.17;67.02
25650;BME280;13505;45.196;5.696;2023-05-29T07:28:29;99010.16;;;20.71;64.99
25650;BME280;13505;45.196;5.696;2023-05-29T07:33:20;99000.44;;;21.19;64.01
25650;BME280;13505;45.196;5.696;2023-05-29T07:38:10;99000.84;;;21.25;63.29
25650;BME280;13505;45.196;5.696;2023-05-29T07:43:01;99004.44;;;21.63;62.02
25650;BME280;13505;45.196;5.696;2023-05-29T07:47:51;98999.97;;;21.92;60.21
25650;BME280;13505;45.196;5.696;2023-05-29T07:52:42;98993.47;;;22.40;58.89
25650;BME280;13505;45.196;5.696;2023-05-29T07:57:33;98984.88;;;23.09;55.49
25650;BME280;13505;45.196;5.696;2023-05-29T08:02:24;98977.66;;;23.54;54.19
25650;BME280;13505;45.196;5.696;2023-05-29T08:07:14;98971.09;;;23.83;52.50
25650;BME280;13505;45.196;5.696;2023-05-29T08:12:05;98967.09;;;23.96;50.78
25650;BME280;13505;45.196;5.696;2023-05-29T08:16:56;98969.03;;;23.77;51.19
25650;BME280;13505;45.196;5.696;2023-05-29T08:21:46;98980.81;;;24.11;50.08
25650;BME280;13505;45.196;5.696;2023-05-29T08:26:37;98976.44;;;24.86;49.67
25650;BME280;13505;45.196;5.696;2023-05-29T08:31:27;98979.63;;;25.15;47.76
25650;BME280;13505;45.196;5.696;2023-05-29T08:36:17;98954.00;;;25.11;46.75
25650;BME280;13505;45.196;5.696;2023-05-29T08:41:38;98963.09;;;25.18;45.20
25650;BME280;13505;45.196;5.696;2023-05-29T08:46:24;98957.56;;;24.78;45.46
25650;BME280;13505;45.196;5.696;2023-05-29T08:51:19;98959.50;;;25.59;45.89
25650;BME280;13505;45.196;5.696;2023-05-29T08:56:11;98954.75;;;26.41;44.77
25650;BME280;13505;45.196;5.696;2023-05-29T09:01:01;98958.84;;;26.83;41.64
25650;BME280;13505;45.196;5.696;2023-05-29T09:05:58;98951.41;;;26.39;43.32
25650;BME280;13505;45.196;5.696;2023-05-29T09:10:49;98950.97;;;24.72;44.14
25650;BME280;13505;45.196;5.696;2023-05-29T09:15:40;98945.59;;;24.80;44.10
25650;BME280;13505;45.196;5.696;2023-05-29T09:20:33;98947.00;;;25.58;42.61
25650;BME280;13505;45.196;5.696;2023-05-29T09:25:25;98953.38;;;25.82;41.92
25650;BME280;13505;45.196;5.696;2023-05-29T09:30:31;98941.06;;;26.66;41.48
25650;BME280;13505;45.196;5.696;2023-05-29T09:35:21;98930.53;;;27.78;40.37
25650;BME280;13505;45.196;5.696;2023-05-29T09:40:12;98939.47;;;27.93;39.16
25650;BME280;13505;45.196;5.696;2023-05-29T09:45:03;98947.56;;;26.33;41.70
25650;BME280;13505;45.196;5.696;2023-05-29T09:49:54;98935.47;;;26.21;42.34
25650;BME280;13505;45.196;5.696;2023-05-29T09:54:46;98931.34;;;26.33;40.62
25650;BME280;13505;45.196;5.696;2023-05-29T09:59:37;98926.41;;;26.60;41.35
25650;BME280;13505;45.196;5.696;2023-05-29T10:04:29;98930.47;;;26.32;40.89
25650;BME280;13505;45.196;5.696;2023-05-29T10:09:20;98907.56;;;27.43;38.72
25650;BME280;13505;45.196;5.696;2023-05-29T10:14:18;98899.50;;;27.05;39.76
25650;BME280;13505;45.196;5.696;2023-05-29T10:19:12;98907.59;;;28.10;39.84
25650;BME280;13505;45.196;5.696;2023-05-29T10:24:06;98906.00;;;27.64;39.75
25650;BME280;13505;45.196;5.696;2023-05-29T10:29:11;98907.00;;;27.33;40.43
25650;BME280;13505;45.196;5.696;2023-05-29T10:34:14;98885.53;;;28.57;39.48
25650;BME280;13505;45.196;5.696;2023-05-29T10:39:05;98889.66;;;27.72;41.69
25650;BME280;13505;45.196;5.696;2023-05-29T10:43:57;98892.19;;;27.96;37.58
25650;BME280;13505;45.196;5.696;2023-05-29T10:48:53;98878.47;;;29.13;38.82
25650;BME280;13505;45.196;5.696;2023-05-29T10:53:43;98882.81;;;29.78;37.93
25650;BME280;13505;45.196;5.696;2023-05-29T10:58:34;98873.34;;;30.22;35.64
25650;BME280;13505;45.196;5.696;2023-05-29T11:03:35;98860.50;;;29.96;37.15
25650;BME280;13505;45.196;5.696;2023-05-29T11:08:48;98862.88;;;30.13;37.63
25650;BME280;13505;45.196;5.696;2023-05-29T11:13:52;98849.53;;;30.45;35.80
25650;BME280;13505;45.196;5.696;2023-05-29T11:18:44;98852.34;;;30.03;36.44
25650;BME280;13505;45.196;5.696;2023-05-29T11:23:39;98835.13;;;30.65;36.24
25650;BME280;13505;45.196;5.696;2023-05-29T11:28:32;98838.22;;;30.55;36.72
25650;BME280;13505;45.196;5.696;2023-05-29T11:33:24;98828.59;;;30.45;37.02
25650;BME280;13505;45.196;5.696;2023-05-29T11:38:15;98826.00;;;28.05;39.00
25650;BME280;13505;45.196;5.696;2023-05-29T11:43:06;98813.09;;;30.12;38.03
25650;BME280;13505;45.196;5.696;2023-05-29T11:47:58;98815.38;;;31.03;36.42
25650;BME280;13505;45.196;5.696;2023-05-29T11:52:48;98806.34;;;31.16;36.83
25650;BME280;13505;45.196;5.696;2023-05-29T11:57:39;98795.66;;;31.14;36.34
25650;BME280;13505;45.196;5.696;2023-05-29T12:02:30;98799.41;;;31.33;35.04
25650;BME280;13505;45.196;5.696;2023-05-29T12:07:21;98792.16;;;30.94;36.71
25650;BME280;13505;45.196;5.696;2023-05-29T12:12:11;98782.34;;;31.52;35.50
25650;BME280;13505;45.196;5.696;2023-05-29T12:17:02;98770.00;;;31.88;34.73
25650;BME280;13505;45.196;5.696;2023-05-29T12:21:52;98775.72;;;31.34;35.93
25650;BME280;13505;45.196;5.696;2023-05-29T12:26:42;98770.25;;;31.73;35.09
25650;BME280;13505;45.196;5.696;2023-05-29T12:31:33;98760.88;;;32.01;35.28
25650;BME280;13505;45.196;5.696;2023-05-29T12:36:25;98755.03;;;31.97;35.11
25650;BME280;13505;45.196;5.696;2023-05-29T12:41:31;98761.59;;;31.90;34.67
25650;BME280;13505;45.196;5.696;2023-05-29T12:46:24;98756.13;;;32.22;34.23
25650;BME280;13505;45.196;5.696;2023-05-29T12:51:17;98756.81;;;31.78;33.81
25650;BME280;13505;45.196;5.696;2023-05-29T12:56:08;98741.28;;;31.79;35.14
25650;BME280;13505;45.196;5.696;2023-05-29T13:00:58;98739.53;;;31.98;34.46
25650;BME280;13505;45.196;5.696;2023-05-29T13:05:50;98745.34;;;32.01;34.89
25650;BME280;13505;45.196;5.696;2023-05-29T13:10:40;98739.88;;;31.76;34.32
25650;BME280;13505;45.196;5.696;2023-05-29T13:15:31;98732.72;;;31.75;34.62
25650;BME280;13505;45.196;5.696;2023-05-29T13:20:22;98725.72;;;31.93;34.43
25650;BME280;13505;45.196;5.696;2023-05-29T13:25:15;98733.16;;;30.67;35.69
25650;BME280;13505;45.196;5.696;2023-05-29T13:30:08;98722.09;;;31.28;35.58
25650;BME280;13505;45.196;5.696;2023-05-29T13:34:59;98711.00;;;31.61;34.88
25650;BME280;13505;45.196;5.696;2023-05-29T13:39:49;98717.06;;;31.64;33.79
25650;BME280;13505;45.196;5.696;2023-05-29T13:44:40;98713.16;;;31.53;33.46
25650;BME280;13505;45.196;5.696;2023-05-29T13:49:30;98711.63;;;31.18;34.82
25650;BME280;13505;45.196;5.696;2023-05-29T13:54:21;98702.38;;;31.65;34.63
25650;BME280;13505;45.196;5.696;2023-05-29T13:59:12;98697.44;;;31.55;34.63
25650;BME280;13505;45.196;5.696;2023-05-29T14:04:02;98707.22;;;31.63;33.73
25650;BME280;13505;45.196;5.696;2023-05-29T14:08:53;98707.47;;;31.93;34.49
25650;BME280;13505;45.196;5.696;2023-05-29T14:13:43;98712.44;;;30.73;37.95
25650;BME280;13505;45.196;5.696;2023-05-29T14:18:34;98723.75;;;31.36;36.10
25650;BME280;13505;45.196;5.696;2023-05-29T14:23:24;98717.09;;;31.25;36.32
25650;BME280;13505;45.196;5.696;2023-05-29T14:28:15;98730.56;;;29.44;40.34
25650;BME280;13505;45.196;5.696;2023-05-29T14:33:05;98730.38;;;28.33;41.54
25650;BME280;13505;45.196;5.696;2023-05-29T14:37:57;98719.97;;;27.93;43.47
25650;BME280;13505;45.196;5.696;2023-05-29T14:42:47;98721.81;;;27.64;42.43
25650;BME280;13505;45.196;5.696;2023-05-29T14:47:37;98728.28;;;28.64;41.62
25650;BME280;13505;45.196;5.696;2023-05-29T14:52:28;98740.19;;;26.87;46.76
25650;BME280;13505;45.196;5.696;2023-05-29T14:57:18;98743.59;;;26.21;51.28
25650;BME280;13505;45.196;5.696;2023-05-29T15:02:08;98739.47;;;25.23;63.82
25650;BME280;13505;45.196;5.696;2023-05-29T15:06:59;98748.28;;;25.08;68.38
25650;BME280;13505;45.196;5.696;2023-05-29T15:11:50;98770.47;;;24.87;64.67
25650;BME280;13505;45.196;5.696;2023-05-29T15:16:40;98794.56;;;24.72;63.23
25650;BME280;13505;45.196;5.696;2023-05-29T15:21:30;98775.41;;;24.42;64.46
25650;BME280;13505;45.196;5.696;2023-05-29T15:26:21;98784.00;;;24.54;64.29
25650;BME280;13505;45.196;5.696;2023-05-29T15:31:11;98779.13;;;24.33;67.79
25650;BME280;13505;45.196;5.696;2023-05-29T15:36:02;98776.84;;;23.62;74.39
25650;BME280;13505;45.196;5.696;2023-05-29T15:40:53;98786.28;;;23.23;77.13
25650;BME280;13505;45.196;5.696;2023-05-29T15:45:44;98796.19;;;23.22;73.90
25650;BME280;13505;45.196;5.696;2023-05-29T15:50:35;98813.63;;;23.10;75.10
25650;BME280;13505;45.196;5.696;2023-05-29T15:55:25;98822.56;;;23.19;75.72
25650;BME280;13505;45.196;5.696;2023-05-29T16:00:16;98833.00;;;23.22;76.64
25650;BME280;13505;45.196;5.696;2023-05-29T16:05:07;98843.72;;;23.13;74.64
25650;BME280;13505;45.196;5.696;2023-05-29T16:09:58;98846.78;;;22.92;76.17
25650;BME280;13505;45.196;5.696;2023-05-29T16:14:48;98834.91;;;22.50;76.80
25650;BME280;13505;45.196;5.696;2023-05-29T16:19:39;98830.97;;;22.44;74.75
25650;BME280;13505;45.196;5.696;2023-05-29T16:24:30;98824.00;;;22.34;75.23
25650;BME280;13505;45.196;5.696;2023-05-29T16:29:26;98825.31;;;22.29;76.36
25650;BME280;13505;45.196;5.696;2023-05-29T16:34:20;98841.88;;;22.25;77.31
25650;BME280;13505;45.196;5.696;2023-05-29T16:39:11;98873.13;;;22.26;77.70
25650;BME280;13505;45.196;5.696;2023-05-29T16:44:02;98874.56;;;22.38;75.64
25650;BME280;13505;45.196;5.696;2023-05-29T16:48:53;98894.22;;;22.39;73.46
25650;BME280;13505;45.196;5.696;2023-05-29T16:53:43;98882.94;;;22.35;70.81
25650;BME280;13505;45.196;5.696;2023-05-29T16:58:33;98900.16;;;22.61;72.13
25650;BME280;13505;45.196;5.696;2023-05-29T17:03:25;98942.53;;;22.49;76.21
25650;BME280;13505;45.196;5.696;2023-05-29T17:08:17;98967.44;;;22.23;76.76
25650;BME280;13505;45.196;5.696;2023-05-29T17:13:07;98945.75;;;22.06;78.13
25650;BME280;13505;45.196;5.696;2023-05-29T17:17:58;98935.56;;;21.82;80.43
25650;BME280;13505;45.196;5.696;2023-05-29T17:22:49;98939.88;;;21.74;81.01
25650;BME280;13505;45.196;5.696;2023-05-29T17:27:40;98940.13;;;21.71;82.44
25650;BME280;13505;45.196;5.696;2023-05-29T17:32:31;98940.91;;;21.92;81.27
25650;BME280;13505;45.196;5.696;2023-05-29T17:37:22;98952.03;;;21.97;81.93
25650;BME280;13505;45.196;5.696;2023-05-29T17:42:13;98952.09;;;21.87;82.54
25650;BME280;13505;45.196;5.696;2023-05-29T17:47:04;98963.00;;;21.66;84.29
25650;BME280;13505;45.196;5.696;2023-05-29T17:51:54;98979.00;;;21.67;84.97
25650;BME280;13505;45.196;5.696;2023-05-29T17:56:45;98999.66;;;21.67;84.53
